Matthews, IN (46957)

2:21 PM EDT on August 29, 2014 (GMT -0400)
WB9HLA-1 | Change Station
CLOSE
Current Station
Personal Weather Station
Location: Hartford City, IN
Elevation: 918 ft
Nearby Weather Stations

Elev 918 ft 40.46 °N, 85.37 °W | Updated 9 minutes ago

Partly Cloudy
Partly Cloudy
91.6 °F
Feels Like 88 °F
N
0.0
Wind Variable Wind from SE
Gusts 0.0 mph

Today
High -- | Low -- °F
--% Chance of Precip.
Yesterday
High -- | Low -- °F
Precip. -- in
7:06 AM 8:18 PM
Waxing Crescent, 15% visible
Pressure 30.03 in
Visibility 10.0 miles
Clouds Scattered Clouds 11000 ft
Heat Index 88 °F
Dew Point 44 °F
Humidity 19%
Rainfall -999.00 in
Snow Depth Not available.
UV 8 out of 12
Pollen 9.70 out of 12
Air Quality Not available.
Flu Activity Not available.
METAR KMIE 291753Z 14005KT 10SM SCT110 27/19 A3006 RMK AO2 SLP168 T02670189 10267 20200 58012

More Conditions Fewer Conditions

Pressure 30.03 in
Visibility 10.0 miles
Clouds Scattered Clouds 11000 ft
Heat Index 88 °F
Dew Point 44 °F
Humidity 19%
Rainfall -999.00 in
Snow Depth Not available.
UV 8 out of 12
Pollen 9.70 out of 12
Air Quality Not available.
Flu Activity Not available.
METAR KMIE 291753Z 14005KT 10SM SCT110 27/19 A3006 RMK AO2 SLP168 T02670189 10267 20200 58012

More Conditions Fewer Conditions

10-Day Weather Forecast

Almanac

Astronomy

Aug. 29, 2014 Rise Set
Actual Time 7:06 AM EDT 8:18 PM EDT
Civil Twilight 6:38 AM EDT 8:46 PM EDT
Nautical Twilight 6:04 AM EDT 9:20 PM EDT
Astronomical Twilight 5:29 AM EDT 9:55 PM EDT
Moon 10:56 AM EDT 10:14 PM EDT
Length of Visible Light 14h 08m
Length of Day
13h 12m
Tomorrow will be 2m 33s shorter.
Waxing Crescent, 15% of the Moon is Illuminated
Today
Waxing Crescent
Sep 2
First Quarter
Sep 8
Full
Sep 15
Last Quarter
Sep 24
New

Today's Extremes

State Highs State Lows

Community

WunderPhotos

Upload Photos

1,748,310 photos uploaded!

Nearby

Snow Depth

Station Depth Elevation
No new snow has been reported.

Earthquake Activity

City Distance Mag. Time & Date
No recent earthquake activity has been reported nearby.
Minimum magnitude displayed is 2.5.

Coastal Water Temperatures

Place Temperature
No Stations Reporting

Nearby Weather Stations